sensor_id;sensor_type;location;lat;lon;timestamp;pressure;altitude;pressure_sealevel;temperature;humidity
33422;BME280;19763;55.798;37.782;2023-11-22T00:00:11;39008.59;;;-145.63;50.15
33422;BME280;19763;55.798;37.782;2023-11-22T00:02:39;38987.09;;;-145.63;49.87
33422;BME280;19763;55.798;37.782;2023-11-22T00:05:06;38903.00;;;-145.63;50.04
33422;BME280;19763;55.798;37.782;2023-11-22T00:07:32;38987.09;;;-145.63;49.80
33422;BME280;19763;55.798;37.782;2023-11-22T00:09:58;39022.28;;;-145.63;50.25
33422;BME280;19763;55.798;37.782;2023-11-22T00:12:24;38768.06;;;-145.63;50.61
33422;BME280;19763;55.798;37.782;2023-11-22T00:14:50;39010.56;;;-145.63;49.97
33422;BME280;19763;55.798;37.782;2023-11-22T00:17:19;38989.03;;;-145.63;50.61
33422;BME280;19763;55.798;37.782;2023-11-22T00:19:45;39133.75;;;-145.63;50.40
33422;BME280;19763;55.798;37.782;2023-11-22T00:22:11;38985.13;;;-145.63;50.51
33422;BME280;19763;55.798;37.782;2023-11-22T00:24:41;39024.25;;;-145.63;49.81
33422;BME280;19763;55.798;37.782;2023-11-22T00:27:07;38991.00;;;-145.63;50.10
33422;BME280;19763;55.798;37.782;2023-11-22T00:29:34;39039.88;;;-145.63;50.72
33422;BME280;19763;55.798;37.782;2023-11-22T00:32:00;39014.47;;;-145.63;50.30
33422;BME280;19763;55.798;37.782;2023-11-22T00:34:26;39012.50;;;-145.63;50.37
33422;BME280;19763;55.798;37.782;2023-11-22T00:36:52;38973.41;;;-145.63;50.55
33422;BME280;19763;55.798;37.782;2023-11-22T00:39:18;39002.72;;;-145.63;50.74
33422;BME280;19763;55.798;37.782;2023-11-22T00:41:44;39024.25;;;-145.63;51.29
33422;BME280;19763;55.798;37.782;2023-11-22T00:44:10;39024.25;;;-145.63;50.57
33422;BME280;19763;55.798;37.782;2023-11-22T00:46:36;39030.13;;;-145.63;50.39
33422;BME280;19763;55.798;37.782;2023-11-22T00:49:05;38992.97;;;-145.63;50.92
33422;BME280;19763;55.798;37.782;2023-11-22T00:51:31;38994.91;;;-145.63;50.27
33422;BME280;19763;55.798;37.782;2023-11-22T00:53:58;39012.50;;;-145.63;50.92
33422;BME280;19763;55.798;37.782;2023-11-22T00:56:25;39024.25;;;-145.63;50.26
33422;BME280;19763;55.798;37.782;2023-11-22T00:58:51;39006.66;;;-145.63;49.93
33422;BME280;19763;55.798;37.782;2023-11-22T01:01:21;38992.97;;;-145.63;49.87
33422;BME280;19763;55.798;37.782;2023-11-22T01:03:47;39000.78;;;-145.63;50.07
33422;BME280;19763;55.798;37.782;2023-11-22T01:06:13;39143.53;;;-145.63;50.02
33422;BME280;19763;55.798;37.782;2023-11-22T01:08:39;38996.88;;;-145.63;49.32
33422;BME280;19763;55.798;37.782;2023-11-22T01:11:05;38987.09;;;-145.63;50.89
33422;BME280;19763;55.798;37.782;2023-11-22T01:13:32;39012.50;;;-145.63;50.55
33422;BME280;19763;55.798;37.782;2023-11-22T01:16:07;38992.97;;;-145.63;50.01
33422;BME280;19763;55.798;37.782;2023-11-22T01:18:33;39018.38;;;-145.63;49.77
33422;BME280;19763;55.798;37.782;2023-11-22T01:20:58;39010.56;;;-145.63;49.92
33422;BME280;19763;55.798;37.782;2023-11-22T01:23:25;39022.28;;;-145.63;50.26
33422;BME280;19763;55.798;37.782;2023-11-22T01:25:50;38996.88;;;-145.63;50.05
33422;BME280;19763;55.798;37.782;2023-11-22T01:28:16;39008.59;;;-145.63;49.75
33422;BME280;19763;55.798;37.782;2023-11-22T01:30:45;38985.13;;;-145.63;50.13
33422;BME280;19763;55.798;37.782;2023-11-22T01:33:15;39000.78;;;-145.63;49.51
33422;BME280;19763;55.798;37.782;2023-11-22T01:35:41;38998.81;;;-145.63;50.20
33422;BME280;19763;55.798;37.782;2023-11-22T01:38:07;38955.81;;;-145.63;49.65
33422;BME280;19763;55.798;37.782;2023-11-22T01:40:34;38967.53;;;-145.63;50.49
33422;BME280;19763;55.798;37.782;2023-11-22T01:43:00;38994.91;;;-145.63;49.94
33422;BME280;19763;55.798;37.782;2023-11-22T01:45:28;38985.13;;;-145.63;50.58
33422;BME280;19763;55.798;37.782;2023-11-22T01:47:53;39006.66;;;-145.63;50.33
33422;BME280;19763;55.798;37.782;2023-11-22T01:50:20;38998.81;;;-145.63;50.45
33422;BME280;19763;55.798;37.782;2023-11-22T01:52:46;38998.81;;;-145.63;50.32
33422;BME280;19763;55.798;37.782;2023-11-22T01:55:13;39010.56;;;-145.63;50.10
33422;BME280;19763;55.798;37.782;2023-11-22T01:57:39;39110.28;;;-145.63;50.42
33422;BME280;19763;55.798;37.782;2023-11-22T02:00:05;39022.28;;;-145.63;50.20
33422;BME280;19763;55.798;37.782;2023-11-22T02:02:39;38996.88;;;-145.63;50.08
33422;BME280;19763;55.798;37.782;2023-11-22T02:05:05;39024.25;;;-145.63;50.49
33422;BME280;19763;55.798;37.782;2023-11-22T02:07:31;39004.69;;;-145.63;50.48
33422;BME280;19763;55.798;37.782;2023-11-22T02:10:00;38989.03;;;-145.63;51.03
33422;BME280;19763;55.798;37.782;2023-11-22T02:12:27;39008.59;;;-145.63;50.83
33422;BME280;19763;55.798;37.782;2023-11-22T02:14:53;38981.22;;;-145.63;51.16
33422;BME280;19763;55.798;37.782;2023-11-22T02:17:19;38989.03;;;-145.63;50.21
33422;BME280;19763;55.798;37.782;2023-11-22T02:19:46;38992.97;;;-145.63;50.89
33422;BME280;19763;55.798;37.782;2023-11-22T02:22:17;39004.69;;;-145.63;50.83
33422;BME280;19763;55.798;37.782;2023-11-22T02:24:42;39022.28;;;-145.63;51.01
33422;BME280;19763;55.798;37.782;2023-11-22T02:27:08;39032.06;;;-145.63;51.04
33422;BME280;19763;55.798;37.782;2023-11-22T02:29:34;38992.97;;;-145.63;50.64
33422;BME280;19763;55.798;37.782;2023-11-22T02:31:59;39014.47;;;-145.63;50.40
33422;BME280;19763;55.798;37.782;2023-11-22T02:34:25;39035.97;;;-145.63;50.51
33422;BME280;19763;55.798;37.782;2023-11-22T02:36:51;39022.28;;;-145.63;51.04
33422;BME280;19763;55.798;37.782;2023-11-22T02:39:16;39008.59;;;-145.63;49.91
33422;BME280;19763;55.798;37.782;2023-11-22T02:41:42;39004.69;;;-145.63;50.54
33422;BME280;19763;55.798;37.782;2023-11-22T02:44:08;39008.59;;;-145.63;50.37
33422;BME280;19763;55.798;37.782;2023-11-22T02:46:33;39016.44;;;-145.63;50.91
33422;BME280;19763;55.798;37.782;2023-11-22T02:48:59;39039.88;;;-145.63;50.77
33422;BME280;19763;55.798;37.782;2023-11-22T02:51:25;38996.88;;;-145.63;50.53
33422;BME280;19763;55.798;37.782;2023-11-22T02:53:53;39012.50;;;-145.63;50.54
33422;BME280;19763;55.798;37.782;2023-11-22T02:56:19;38992.97;;;-145.63;51.15
33422;BME280;19763;55.798;37.782;2023-11-22T02:58:45;39000.78;;;-145.63;51.47
33422;BME280;19763;55.798;37.782;2023-11-22T03:01:11;39000.78;;;-145.63;51.20
33422;BME280;19763;55.798;37.782;2023-11-22T03:03:36;39014.47;;;-145.63;50.99
33422;BME280;19763;55.798;37.782;2023-11-22T03:06:02;39002.72;;;-145.63;51.41
33422;BME280;19763;55.798;37.782;2023-11-22T03:08:28;39010.56;;;-145.63;51.01
33422;BME280;19763;55.798;37.782;2023-11-22T03:10:54;38934.28;;;-145.63;50.52
33422;BME280;19763;55.798;37.782;2023-11-22T03:13:20;39022.28;;;-145.63;50.36
33422;BME280;19763;55.798;37.782;2023-11-22T03:15:45;39016.44;;;-145.63;50.09
33422;BME280;19763;55.798;37.782;2023-11-22T03:18:12;39020.34;;;-145.63;50.83
33422;BME280;19763;55.798;37.782;2023-11-22T03:20:39;39014.47;;;-145.63;49.99
33422;BME280;19763;55.798;37.782;2023-11-22T03:23:07;38928.44;;;-145.63;50.32
33422;BME280;19763;55.798;37.782;2023-11-22T03:25:36;39053.59;;;-145.63;50.05
33422;BME280;19763;55.798;37.782;2023-11-22T03:28:02;39016.44;;;-145.63;49.83
33422;BME280;19763;55.798;37.782;2023-11-22T03:30:28;39026.19;;;-145.63;49.04
33422;BME280;19763;55.798;37.782;2023-11-22T03:32:54;39002.72;;;-145.63;49.28
33422;BME280;19763;55.798;37.782;2023-11-22T03:35:21;38985.13;;;-145.63;48.56
33422;BME280;19763;55.798;37.782;2023-11-22T03:37:47;38996.88;;;-145.63;48.98
33422;BME280;19763;55.798;37.782;2023-11-22T03:40:12;39004.69;;;-145.63;49.15
33422;BME280;19763;55.798;37.782;2023-11-22T03:42:39;39028.16;;;-145.63;48.58
33422;BME280;19763;55.798;37.782;2023-11-22T03:45:06;39014.47;;;-145.63;49.38
33422;BME280;19763;55.798;37.782;2023-11-22T03:47:32;39012.50;;;-145.63;49.19
33422;BME280;19763;55.798;37.782;2023-11-22T03:49:59;39035.97;;;-145.63;49.42
33422;BME280;19763;55.798;37.782;2023-11-22T03:52:25;39000.78;;;-145.63;49.56
33422;BME280;19763;55.798;37.782;2023-11-22T03:54:52;39006.66;;;-145.63;49.23
33422;BME280;19763;55.798;37.782;2023-11-22T03:57:18;38414.16;;;-145.63;48.79
33422;BME280;19763;55.798;37.782;2023-11-22T03:59:44;38953.84;;;-145.63;49.36
33422;BME280;19763;55.798;37.782;2023-11-22T04:02:10;39000.78;;;-145.63;49.25
33422;BME280;19763;55.798;37.782;2023-11-22T04:04:37;38971.44;;;-145.63;48.48
33422;BME280;19763;55.798;37.782;2023-11-22T04:07:06;38994.91;;;-145.63;48.75
33422;BME280;19763;55.798;37.782;2023-11-22T04:09:31;39004.69;;;-145.63;49.28
33422;BME280;19763;55.798;37.782;2023-11-22T04:11:58;38977.31;;;-145.63;48.79
33422;BME280;19763;55.798;37.782;2023-11-22T04:14:24;39000.78;;;-145.63;49.39
33422;BME280;19763;55.798;37.782;2023-11-22T04:16:50;38899.09;;;-145.63;49.07
33422;BME280;19763;55.798;37.782;2023-11-22T04:19:16;39006.66;;;-145.63;48.67
33422;BME280;19763;55.798;37.782;2023-11-22T04:21:41;38987.09;;;-145.63;49.17
33422;BME280;19763;55.798;37.782;2023-11-22T04:24:07;38996.88;;;-145.63;49.09
33422;BME280;19763;55.798;37.782;2023-11-22T04:26:33;39002.72;;;-145.63;49.06
33422;BME280;19763;55.798;37.782;2023-11-22T04:28:59;39012.50;;;-145.63;49.51
33422;BME280;19763;55.798;37.782;2023-11-22T04:31:25;38994.91;;;-145.63;49.43
33422;BME280;19763;55.798;37.782;2023-11-22T04:33:50;38989.03;;;-145.63;49.78
33422;BME280;19763;55.798;37.782;2023-11-22T04:36:16;38961.66;;;-145.63;49.19
33422;BME280;19763;55.798;37.782;2023-11-22T04:38:42;38983.19;;;-145.63;49.28
33422;BME280;19763;55.798;37.782;2023-11-22T04:41:08;38953.84;;;-145.63;49.40
33422;BME280;19763;55.798;37.782;2023-11-22T04:43:34;39039.88;;;-145.63;49.40
33422;BME280;19763;55.798;37.782;2023-11-22T04:45:59;39014.47;;;-145.63;49.91
33422;BME280;19763;55.798;37.782;2023-11-22T04:48:25;39032.06;;;-145.63;49.27
33422;BME280;19763;55.798;37.782;2023-11-22T04:50:51;39000.78;;;-145.63;48.71
33422;BME280;19763;55.798;37.782;2023-11-22T04:53:18;39034.03;;;-145.63;49.37
33422;BME280;19763;55.798;37.782;2023-11-22T04:55:44;39018.38;;;-145.63;48.62
33422;BME280;19763;55.798;37.782;2023-11-22T04:58:10;39057.50;;;-145.63;49.06
33422;BME280;19763;55.798;37.782;2023-11-22T05:00:36;39002.72;;;-145.63;49.11
33422;BME280;19763;55.798;37.782;2023-11-22T05:03:02;38996.88;;;-145.63;49.21
33422;BME280;19763;55.798;37.782;2023-11-22T05:05:27;38992.97;;;-145.63;49.14
33422;BME280;19763;55.798;37.782;2023-11-22T05:07:54;39004.69;;;-145.63;48.79
33422;BME280;19763;55.798;37.782;2023-11-22T05:10:19;38994.91;;;-145.63;49.38
33422;BME280;19763;55.798;37.782;2023-11-22T05:12:45;39028.16;;;-145.63;50.38
33422;BME280;19763;55.798;37.782;2023-11-22T05:15:11;38994.91;;;-145.63;49.57
33422;BME280;19763;55.798;37.782;2023-11-22T05:17:37;39024.25;;;-145.63;49.19
33422;BME280;19763;55.798;37.782;2023-11-22T05:20:04;39004.69;;;-145.63;49.80
33422;BME280;19763;55.798;37.782;2023-11-22T05:22:31;39020.34;;;-145.63;49.53
33422;BME280;19763;55.798;37.782;2023-11-22T05:24:57;39004.69;;;-145.63;50.57
33422;BME280;19763;55.798;37.782;2023-11-22T05:27:22;39014.47;;;-145.63;49.48
33422;BME280;19763;55.798;37.782;2023-11-22T05:29:48;38961.66;;;-145.63;49.70
33422;BME280;19763;55.798;37.782;2023-11-22T05:32:14;39020.34;;;-145.63;49.40
33422;BME280;19763;55.798;37.782;2023-11-22T05:34:40;39012.50;;;-145.63;49.59
33422;BME280;19763;55.798;37.782;2023-11-22T05:37:06;38996.88;;;-145.63;49.08
33422;BME280;19763;55.798;37.782;2023-11-22T05:39:32;39034.03;;;-145.63;48.51
33422;BME280;19763;55.798;37.782;2023-11-22T05:41:58;39026.19;;;-145.63;47.59
33422;BME280;19763;55.798;37.782;2023-11-22T05:44:24;38994.91;;;-145.63;47.80
33422;BME280;19763;55.798;37.782;2023-11-22T05:46:51;39000.78;;;-145.63;48.34
33422;BME280;19763;55.798;37.782;2023-11-22T05:49:17;38922.56;;;-145.63;47.13
33422;BME280;19763;55.798;37.782;2023-11-22T05:51:43;39012.50;;;-145.63;47.97
33422;BME280;19763;55.798;37.782;2023-11-22T05:54:09;39018.38;;;-145.63;48.36
33422;BME280;19763;55.798;37.782;2023-11-22T05:56:37;39049.66;;;-145.63;48.65
33422;BME280;19763;55.798;37.782;2023-11-22T05:59:03;39014.47;;;-145.63;48.18
33422;BME280;19763;55.798;37.782;2023-11-22T06:01:29;39020.34;;;-145.63;47.68
33422;BME280;19763;55.798;37.782;2023-11-22T06:03:55;39004.69;;;-145.63;48.63
33422;BME280;19763;55.798;37.782;2023-11-22T06:06:22;38996.88;;;-145.63;48.66
33422;BME280;19763;55.798;37.782;2023-11-22T06:08:48;38961.66;;;-145.63;48.14
33422;BME280;19763;55.798;37.782;2023-11-22T06:11:14;38961.66;;;-145.63;48.36
33422;BME280;19763;55.798;37.782;2023-11-22T06:13:44;39016.44;;;-145.63;48.90
33422;BME280;19763;55.798;37.782;2023-11-22T06:16:12;39022.28;;;-145.63;49.43
33422;BME280;19763;55.798;37.782;2023-11-22T06:18:38;39012.50;;;-145.63;49.55
33422;BME280;19763;55.798;37.782;2023-11-22T06:21:07;39004.69;;;-145.63;48.83
33422;BME280;19763;55.798;37.782;2023-11-22T06:23:34;38490.41;;;-145.63;49.13
33422;BME280;19763;55.798;37.782;2023-11-22T06:26:00;39000.78;;;-145.63;49.06
33422;BME280;19763;55.798;37.782;2023-11-22T06:28:25;39014.47;;;-145.63;48.88
33422;BME280;19763;55.798;37.782;2023-11-22T06:30:52;39006.66;;;-145.63;48.41
33422;BME280;19763;55.798;37.782;2023-11-22T06:33:18;38934.28;;;-145.63;47.47
33422;BME280;19763;55.798;37.782;2023-11-22T06:35:44;38965.56;;;-145.63;48.21
33422;BME280;19763;55.798;37.782;2023-11-22T06:38:10;38979.28;;;-145.63;48.06
33422;BME280;19763;55.798;37.782;2023-11-22T06:40:35;39002.72;;;-145.63;48.18
33422;BME280;19763;55.798;37.782;2023-11-22T06:43:01;38967.53;;;-145.63;47.11
33422;BME280;19763;55.798;37.782;2023-11-22T06:45:30;38946.03;;;-145.63;47.96
33422;BME280;19763;55.798;37.782;2023-11-22T06:47:57;38940.16;;;-145.63;48.11
33422;BME280;19763;55.798;37.782;2023-11-22T06:50:26;38959.72;;;-145.63;47.62
33422;BME280;19763;55.798;37.782;2023-11-22T06:52:52;38940.16;;;-145.63;47.99
33422;BME280;19763;55.798;37.782;2023-11-22T06:55:18;38938.19;;;-145.63;47.25
33422;BME280;19763;55.798;37.782;2023-11-22T06:57:44;38912.78;;;-145.63;47.09
33422;BME280;19763;55.798;37.782;2023-11-22T07:00:10;38963.63;;;-145.63;47.80
33422;BME280;19763;55.798;37.782;2023-11-22T07:02:38;38930.38;;;-145.63;47.38
33422;BME280;19763;55.798;37.782;2023-11-22T07:05:04;38975.34;;;-145.63;47.45
33422;BME280;19763;55.798;37.782;2023-11-22T07:07:38;39018.38;;;-145.63;47.23
33422;BME280;19763;55.798;37.782;2023-11-22T07:10:05;38916.69;;;-145.63;46.63
33422;BME280;19763;55.798;37.782;2023-11-22T07:12:34;38946.03;;;-145.63;46.24
33422;BME280;19763;55.798;37.782;2023-11-22T07:15:01;38938.19;;;-145.63;46.50
33422;BME280;19763;55.798;37.782;2023-11-22T07:17:26;38949.94;;;-145.63;46.96
33422;BME280;19763;55.798;37.782;2023-11-22T07:19:54;38942.13;;;-145.63;45.76
33422;BME280;19763;55.798;37.782;2023-11-22T07:22:20;38934.28;;;-145.63;46.33
33422;BME280;19763;55.798;37.782;2023-11-22T07:24:48;38985.13;;;-145.63;46.58
33422;BME280;19763;55.798;37.782;2023-11-22T07:27:17;38953.84;;;-145.63;47.19
33422;BME280;19763;55.798;37.782;2023-11-22T07:29:44;38944.06;;;-145.63;47.24
33422;BME280;19763;55.798;37.782;2023-11-22T07:32:11;38961.66;;;-145.63;46.60
33422;BME280;19763;55.798;37.782;2023-11-22T07:34:38;39006.66;;;-145.63;47.25
33422;BME280;19763;55.798;37.782;2023-11-22T07:37:05;38955.81;;;-145.63;46.70
33422;BME280;19763;55.798;37.782;2023-11-22T07:39:33;38965.56;;;-145.63;46.94
33422;BME280;19763;55.798;37.782;2023-11-22T07:42:01;38963.63;;;-145.63;47.24
33422;BME280;19763;55.798;37.782;2023-11-22T07:44:27;38951.88;;;-145.63;46.19
33422;BME280;19763;55.798;37.782;2023-11-22T07:46:53;38957.75;;;-145.63;46.75
33422;BME280;19763;55.798;37.782;2023-11-22T07:49:19;38977.31;;;-145.63;46.65
33422;BME280;19763;55.798;37.782;2023-11-22T07:51:48;38947.97;;;-145.63;45.64
33422;BME280;19763;55.798;37.782;2023-11-22T07:54:18;38942.13;;;-145.63;46.40
33422;BME280;19763;55.798;37.782;2023-11-22T07:56:44;38936.25;;;-145.63;45.58
33422;BME280;19763;55.798;37.782;2023-11-22T07:59:10;38930.38;;;-145.63;45.91
33422;BME280;19763;55.798;37.782;2023-11-22T08:01:36;38989.03;;;-145.63;45.43
33422;BME280;19763;55.798;37.782;2023-11-22T08:04:03;38953.84;;;-145.63;45.51
33422;BME280;19763;55.798;37.782;2023-11-22T08:06:33;38932.34;;;-145.63;45.18
33422;BME280;19763;55.798;37.782;2023-11-22T08:09:00;38947.97;;;-145.63;45.53
33422;BME280;19763;55.798;37.782;2023-11-22T08:11:27;38942.13;;;-145.63;45.05
33422;BME280;19763;55.798;37.782;2023-11-22T08:13:54;39020.34;;;-145.63;45.18
33422;BME280;19763;55.798;37.782;2023-11-22T08:16:25;38957.75;;;-145.63;46.14
33422;BME280;19763;55.798;37.782;2023-11-22T08:18:51;38949.94;;;-145.63;45.66
33422;BME280;19763;55.798;37.782;2023-11-22T08:21:17;38936.25;;;-145.63;45.09
33422;BME280;19763;55.798;37.782;2023-11-22T08:23:45;38930.38;;;-145.63;45.11
33422;BME280;19763;55.798;37.782;2023-11-22T08:26:12;38977.31;;;-145.63;46.45
33422;BME280;19763;55.798;37.782;2023-11-22T08:28:38;38965.56;;;-145.63;45.54
33422;BME280;19763;55.798;37.782;2023-11-22T08:31:04;38957.75;;;-145.63;44.89
33422;BME280;19763;55.798;37.782;2023-11-22T08:33:37;38934.28;;;-145.63;44.58
33422;BME280;19763;55.798;37.782;2023-11-22T08:36:05;38940.16;;;-145.63;45.62
33422;BME280;19763;55.798;37.782;2023-11-22T08:38:31;38908.88;;;-145.63;45.55
33422;BME280;19763;55.798;37.782;2023-11-22T08:41:06;38963.63;;;-145.63;46.00
33422;BME280;19763;55.798;37.782;2023-11-22T08:43:33;38955.81;;;-145.63;45.94
33422;BME280;19763;55.798;37.782;2023-11-22T08:45:59;38955.81;;;-145.63;45.18
33422;BME280;19763;55.798;37.782;2023-11-22T08:48:25;38959.72;;;-145.63;45.56
33422;BME280;19763;55.798;37.782;2023-11-22T08:50:53;38955.81;;;-145.63;45.56
33422;BME280;19763;55.798;37.782;2023-11-22T08:53:21;38961.66;;;-145.63;45.09
33422;BME280;19763;55.798;37.782;2023-11-22T08:55:49;38959.72;;;-145.63;45.37
33422;BME280;19763;55.798;37.782;2023-11-22T08:58:15;38983.19;;;-145.63;45.04
33422;BME280;19763;55.798;37.782;2023-11-22T09:00:41;38969.50;;;-145.63;45.72
33422;BME280;19763;55.798;37.782;2023-11-22T09:03:08;38981.22;;;-145.63;44.51
33422;BME280;19763;55.798;37.782;2023-11-22T09:05:39;38998.81;;;-145.63;44.79
33422;BME280;19763;55.798;37.782;2023-11-22T09:08:05;38973.41;;;-145.63;44.06
33422;BME280;19763;55.798;37.782;2023-11-22T09:10:31;38981.22;;;-145.63;44.62
33422;BME280;19763;55.798;37.782;2023-11-22T09:12:56;38987.09;;;-145.63;44.29
33422;BME280;19763;55.798;37.782;2023-11-22T09:15:25;38975.34;;;-145.63;44.94
33422;BME280;19763;55.798;37.782;2023-11-22T09:17:55;38983.19;;;-145.63;45.59
33422;BME280;19763;55.798;37.782;2023-11-22T09:20:21;38967.53;;;-145.63;45.13
33422;BME280;19763;55.798;37.782;2023-11-22T09:22:50;38977.31;;;-145.63;43.91
33422;BME280;19763;55.798;37.782;2023-11-22T09:25:17;38992.97;;;-145.63;44.54
33422;BME280;19763;55.798;37.782;2023-11-22T09:27:47;38994.91;;;-145.63;44.90
33422;BME280;19763;55.798;37.782;2023-11-22T09:30:15;38994.91;;;-145.63;45.47
33422;BME280;19763;55.798;37.782;2023-11-22T09:33:11;39012.50;;;-145.63;44.52
33422;BME280;19763;55.798;37.782;2023-11-22T09:35:38;39000.78;;;-145.63;45.10
33422;BME280;19763;55.798;37.782;2023-11-22T09:38:07;38969.50;;;-145.63;45.24
33422;BME280;19763;55.798;37.782;2023-11-22T09:40:48;38989.03;;;-145.63;45.63
33422;BME280;19763;55.798;37.782;2023-11-22T09:43:18;38991.00;;;-145.63;44.81
33422;BME280;19763;55.798;37.782;2023-11-22T09:45:47;38994.91;;;-145.63;44.58
33422;BME280;19763;55.798;37.782;2023-11-22T09:48:17;38973.41;;;-145.63;44.08
33422;BME280;19763;55.798;37.782;2023-11-22T09:53:53;38955.81;;;-145.63;44.58
33422;BME280;19763;55.798;37.782;2023-11-22T09:56:23;38998.81;;;-145.63;45.10
33422;BME280;19763;55.798;37.782;2023-11-22T09:58:51;38994.91;;;-145.63;44.61
33422;BME280;19763;55.798;37.782;2023-11-22T10:01:20;38961.66;;;-145.63;45.47
33422;BME280;19763;55.798;37.782;2023-11-22T10:03:47;38949.94;;;-145.63;44.55
33422;BME280;19763;55.798;37.782;2023-11-22T10:06:14;38989.03;;;-145.63;44.96
33422;BME280;19763;55.798;37.782;2023-11-22T10:08:41;39053.59;;;-145.63;44.96
33422;BME280;19763;55.798;37.782;2023-11-22T10:11:07;38967.53;;;-145.63;45.10
33422;BME280;19763;55.798;37.782;2023-11-22T10:13:33;38992.97;;;-145.63;44.41
33422;BME280;19763;55.798;37.782;2023-11-22T10:16:10;39037.94;;;-145.63;46.19
33422;BME280;19763;55.798;37.782;2023-11-22T10:18:43;38985.13;;;-145.63;46.36
33422;BME280;19763;55.798;37.782;2023-11-22T10:21:19;39168.97;;;-145.63;45.51
33422;BME280;19763;55.798;37.782;2023-11-22T10:23:54;38961.66;;;-145.63;44.48
33422;BME280;19763;55.798;37.782;2023-11-22T10:26:22;39032.06;;;-145.63;44.91
33422;BME280;19763;55.798;37.782;2023-11-22T10:28:52;38994.91;;;-145.63;45.04
33422;BME280;19763;55.798;37.782;2023-11-22T10:31:19;38969.50;;;-145.63;44.82
33422;BME280;19763;55.798;37.782;2023-11-22T10:33:47;39004.69;;;-145.63;44.85
33422;BME280;19763;55.798;37.782;2023-11-22T10:36:14;38977.31;;;-145.63;45.16
33422;BME280;19763;55.798;37.782;2023-11-22T10:38:41;38989.03;;;-145.63;45.23
33422;BME280;19763;55.798;37.782;2023-11-22T10:41:08;38928.44;;;-145.63;45.97
33422;BME280;19763;55.798;37.782;2023-11-22T10:43:37;38947.97;;;-145.63;45.80
33422;BME280;19763;55.798;37.782;2023-11-22T10:46:03;38942.13;;;-145.63;45.83
33422;BME280;19763;55.798;37.782;2023-11-22T10:48:31;38938.19;;;-145.63;45.62
33422;BME280;19763;55.798;37.782;2023-11-22T10:51:01;38951.88;;;-145.63;46.12
33422;BME280;19763;55.798;37.782;2023-11-22T10:53:50;38969.50;;;-145.63;45.47
33422;BME280;19763;55.798;37.782;2023-11-22T10:56:19;39006.66;;;-145.63;45.07
33422;BME280;19763;55.798;37.782;2023-11-22T10:58:49;38961.66;;;-145.63;45.94
33422;BME280;19763;55.798;37.782;2023-11-22T11:01:24;38971.44;;;-145.63;44.88
33422;BME280;19763;55.798;37.782;2023-11-22T11:04:01;38971.44;;;-145.63;45.26
33422;BME280;19763;55.798;37.782;2023-11-22T11:06:33;38785.66;;;-145.63;45.85
33422;BME280;19763;55.798;37.782;2023-11-22T11:09:01;38985.13;;;-145.63;46.35
33422;BME280;19763;55.798;37.782;2023-11-22T11:11:32;38985.13;;;-145.63;45.68
33422;BME280;19763;55.798;37.782;2023-11-22T11:13:59;38985.13;;;-145.63;46.49
33422;BME280;19763;55.798;37.782;2023-11-22T11:16:26;39002.72;;;-145.63;46.42
33422;BME280;19763;55.798;37.782;2023-11-22T11:18:52;38992.97;;;-145.63;46.14
33422;BME280;19763;55.798;37.782;2023-11-22T11:21:19;39002.72;;;-145.63;45.58
33422;BME280;19763;55.798;37.782;2023-11-22T11:23:44;38998.81;;;-145.63;45.45
33422;BME280;19763;55.798;37.782;2023-11-22T11:26:19;38977.31;;;-145.63;46.04
33422;BME280;19763;55.798;37.782;2023-11-22T11:28:49;38985.13;;;-145.63;45.08
33422;BME280;19763;55.798;37.782;2023-11-22T11:31:16;38979.28;;;-145.63;45.07
33422;BME280;19763;55.798;37.782;2023-11-22T11:36:24;39008.59;;;-145.63;46.19
33422;BME280;19763;55.798;37.782;2023-11-22T11:38:53;39079.00;;;-145.63;45.47
33422;BME280;19763;55.798;37.782;2023-11-22T11:41:27;38998.81;;;-145.63;46.44
33422;BME280;19763;55.798;37.782;2023-11-22T11:43:55;39008.59;;;-145.63;45.72
33422;BME280;19763;55.798;37.782;2023-11-22T11:46:21;38983.19;;;-145.63;45.09
33422;BME280;19763;55.798;37.782;2023-11-22T11:48:52;39024.25;;;-145.63;45.12
33422;BME280;19763;55.798;37.782;2023-11-22T11:51:19;39024.25;;;-145.63;45.38
33422;BME280;19763;55.798;37.782;2023-11-22T11:53:46;39010.56;;;-145.63;45.60
33422;BME280;19763;55.798;37.782;2023-11-22T11:56:12;38971.44;;;-145.63;45.96
33422;BME280;19763;55.798;37.782;2023-11-22T11:58:38;39088.78;;;-145.63;45.16
33422;BME280;19763;55.798;37.782;2023-11-22T12:01:06;38824.78;;;-145.63;46.15
33422;BME280;19763;55.798;37.782;2023-11-22T12:03:33;39004.69;;;-145.63;45.66
33422;BME280;19763;55.798;37.782;2023-11-22T12:06:01;38965.56;;;-145.63;46.48
33422;BME280;19763;55.798;37.782;2023-11-22T12:08:27;38991.00;;;-145.63;46.02
33422;BME280;19763;55.798;37.782;2023-11-22T12:10:56;39008.59;;;-145.63;46.79
33422;BME280;19763;55.798;37.782;2023-11-22T12:13:24;38979.28;;;-145.63;47.09
33422;BME280;19763;55.798;37.782;2023-11-22T12:15:52;39059.44;;;-145.63;45.65
33422;BME280;19763;55.798;37.782;2023-11-22T12:18:22;39051.63;;;-145.63;46.52
33422;BME280;19763;55.798;37.782;2023-11-22T12:20:58;39032.06;;;-145.63;45.32
33422;BME280;19763;55.798;37.782;2023-11-22T12:23:26;39014.47;;;-145.63;46.29
33422;BME280;19763;55.798;37.782;2023-11-22T12:25:59;38992.97;;;-145.63;46.14
33422;BME280;19763;55.798;37.782;2023-11-22T12:28:26;39024.25;;;-145.63;46.70
33422;BME280;19763;55.798;37.782;2023-11-22T12:30:52;39051.63;;;-145.63;45.10
33422;BME280;19763;55.798;37.782;2023-11-22T12:33:19;39030.13;;;-145.63;45.32
33422;BME280;19763;55.798;37.782;2023-11-22T12:35:46;39047.72;;;-145.63;45.68